createdAt,value
2022-08-11T00:02:36.450Z,99.90
2022-08-11T00:05:08.170Z,99.90
2022-08-11T00:07:43.419Z,99.90
2022-08-11T00:10:13.968Z,99.90
2022-08-11T00:12:43.953Z,99.90
2022-08-11T00:15:13.600Z,99.90
2022-08-11T00:17:43.778Z,99.90
2022-08-11T00:20:16.515Z,99.90
2022-08-11T00:22:47.637Z,99.90
2022-08-11T00:25:17.898Z,99.90
2022-08-11T00:27:47.364Z,99.90
2022-08-11T00:30:16.819Z,99.90
2022-08-11T00:32:54.222Z,99.90
2022-08-11T00:35:51.906Z,99.90
2022-08-11T00:38:17.280Z,99.90
2022-08-11T00:40:54.175Z,99.90
2022-08-11T00:43:37.931Z,99.90
2022-08-11T00:46:23.949Z,99.90
2022-08-11T00:49:12.330Z,99.90
2022-08-11T00:52:02.082Z,99.90
2022-08-11T00:55:07.923Z,99.90
2022-08-11T00:58:13.207Z,99.90
2022-08-11T01:01:01.834Z,99.90
2022-08-11T01:04:00.952Z,99.90
2022-08-11T01:06:53.592Z,99.90
2022-08-11T01:09:52.383Z,99.90
2022-08-11T01:12:31.809Z,99.90
2022-08-11T01:15:37.438Z,99.90
2022-08-11T01:18:45.907Z,99.90
2022-08-11T01:21:53.204Z,99.90
2022-08-11T01:25:02.104Z,99.90
2022-08-11T01:28:09.088Z,99.90
2022-08-11T01:31:26.507Z,99.90
2022-08-11T01:34:34.790Z,99.90
2022-08-11T01:37:32.594Z,99.90
2022-08-11T01:40:42.042Z,99.90
2022-08-11T01:44:01.205Z,99.90
2022-08-11T01:46:33.385Z,99.90
2022-08-11T01:50:08.885Z,99.90
2022-08-11T01:52:20.487Z,99.90
2022-08-11T01:55:13.767Z,99.90
2022-08-11T01:57:51.127Z,99.90
2022-08-11T02:00:22.209Z,99.90
2022-08-11T02:02:58.172Z,99.90
2022-08-11T02:05:45.542Z,99.90
2022-08-11T02:08:32.992Z,99.90
2022-08-11T02:11:35.692Z,99.90
2022-08-11T02:14:20.895Z,99.90
2022-08-11T02:16:56.757Z,99.90
2022-08-11T02:19:56.589Z,99.90
2022-08-11T02:22:49.580Z,99.90
2022-08-11T02:25:27.772Z,99.90
2022-08-11T02:28:03.644Z,99.90
2022-08-11T02:30:38.248Z,99.90
2022-08-11T02:33:25.412Z,99.90
2022-08-11T02:36:04.841Z,99.90
2022-08-11T02:38:43.406Z,99.90
2022-08-11T02:41:40.094Z,99.90
2022-08-11T02:44:22.307Z,99.90
2022-08-11T02:46:58.437Z,99.90
2022-08-11T02:50:02.671Z,99.90
2022-08-11T02:52:42.234Z,99.90
2022-08-11T02:55:56.589Z,99.90
2022-08-11T02:58:17.695Z,99.90
2022-08-11T03:00:57.158Z,99.90
2022-08-11T03:03:33.228Z,99.90
2022-08-11T03:06:11.482Z,99.90
2022-08-11T03:08:52.799Z,99.90
2022-08-11T03:12:11.193Z,99.90
2022-08-11T03:15:06.567Z,99.90
2022-08-11T03:17:42.233Z,99.90
2022-08-11T03:20:33.110Z,99.90
2022-08-11T03:23:19.997Z,99.90
2022-08-11T03:25:54.531Z,99.90
2022-08-11T03:28:36.969Z,99.90
2022-08-11T03:31:24.841Z,99.90
2022-08-11T03:34:07.860Z,99.90
2022-08-11T03:37:17.671Z,99.90
2022-08-11T03:40:00.246Z,99.90
2022-08-11T03:42:34.054Z,99.90
2022-08-11T03:45:17.366Z,99.90
2022-08-11T03:47:58.339Z,99.90
2022-08-11T03:50:40.929Z,99.90
2022-08-11T03:53:18.545Z,99.90
2022-08-11T03:56:26.058Z,99.90
2022-08-11T03:59:18.550Z,99.90
2022-08-11T04:02:10.821Z,99.90
2022-08-11T04:05:13.305Z,99.90
2022-08-11T04:08:18.756Z,99.90
2022-08-11T04:11:11.125Z,99.90
2022-08-11T04:14:31.353Z,99.90
2022-08-11T04:17:25.278Z,99.90
2022-08-11T04:20:30.148Z,99.90
2022-08-11T04:24:33.031Z,99.90
2022-08-11T04:27:07.456Z,99.90
2022-08-11T04:30:03.719Z,99.90
2022-08-11T04:32:58.180Z,99.90
2022-08-11T04:35:50.221Z,99.90
2022-08-11T04:38:59.130Z,99.90
2022-08-11T04:42:21.671Z,99.90
2022-08-11T04:45:26.244Z,99.90
2022-08-11T04:48:57.766Z,99.90
2022-08-11T04:52:06.795Z,99.90
2022-08-11T04:55:12.632Z,99.90
2022-08-11T04:58:10.295Z,99.90
2022-08-11T05:01:14.946Z,99.90
2022-08-11T05:04:28.109Z,99.90
2022-08-11T05:07:21.626Z,99.90
2022-08-11T05:10:08.045Z,99.90
2022-08-11T05:12:44.374Z,99.90
2022-08-11T05:15:32.317Z,99.90
2022-08-11T05:18:35.386Z,99.90
2022-08-11T05:21:26.110Z,99.90
2022-08-11T05:24:26.930Z,99.90
2022-08-11T05:27:14.131Z,99.90
2022-08-11T05:30:04.456Z,99.90
2022-08-11T05:33:00.987Z,99.90
2022-08-11T05:36:02.316Z,99.90
2022-08-11T05:38:45.624Z,99.90
2022-08-11T05:41:33.758Z,99.90
2022-08-11T05:44:22.701Z,99.90
2022-08-11T05:47:09.452Z,99.90
2022-08-11T05:49:56.765Z,99.90
2022-08-11T05:52:49.266Z,99.90
2022-08-11T05:55:58.404Z,99.90
2022-08-11T05:58:45.789Z,99.90
2022-08-11T06:01:18.030Z,99.90
2022-08-11T06:04:10.582Z,99.90
2022-08-11T06:06:45.298Z,99.90
2022-08-11T06:09:15.839Z,99.90
2022-08-11T06:11:45.212Z,99.90
2022-08-11T06:14:16.543Z,99.90
2022-08-11T06:16:49.088Z,99.90
2022-08-11T06:19:23.149Z,99.90
2022-08-11T06:21:53.220Z,99.90
2022-08-11T06:24:21.809Z,99.90
2022-08-11T06:27:11.917Z,99.90
2022-08-11T06:29:54.796Z,99.90
2022-08-11T06:32:27.131Z,99.60
2022-08-11T06:35:17.873Z,97.70
2022-08-11T06:37:58.638Z,99.50
2022-08-11T06:40:36.938Z,97.50
2022-08-11T06:43:12.837Z,97.90
2022-08-11T06:45:52.506Z,99.90
2022-08-11T06:48:24.270Z,97.70
2022-08-11T06:51:11.426Z,98.50
2022-08-11T06:53:56.311Z,98.30
2022-08-11T06:57:12.539Z,99.90
2022-08-11T07:00:01.617Z,98.70
2022-08-11T07:02:35.308Z,99.10
2022-08-11T07:05:08.633Z,98.90
2022-08-11T07:08:33.538Z,98.00
2022-08-11T07:11:39.247Z,96.90
2022-08-11T07:14:26.709Z,96.00
2022-08-11T07:16:55.201Z,97.10
2022-08-11T07:19:45.502Z,93.70
2022-08-11T07:22:32.242Z,96.50
2022-08-11T07:25:21.567Z,94.50
2022-08-11T07:28:12.470Z,90.00
2022-08-11T07:30:43.389Z,88.70
2022-08-11T07:34:04.855Z,92.00
2022-08-11T07:36:06.541Z,92.20
2022-08-11T07:38:47.356Z,89.90
2022-08-11T07:41:18.222Z,89.90
2022-08-11T07:43:49.672Z,89.00
2022-08-11T07:46:37.285Z,81.80
2022-08-11T07:49:25.964Z,79.60
2022-08-11T07:52:14.646Z,81.70
2022-08-11T07:54:43.928Z,82.90
2022-08-11T07:57:59.486Z,80.10
2022-08-11T08:00:42.435Z,71.70
2022-08-11T08:03:28.548Z,70.00
2022-08-11T08:06:35.479Z,67.50
2022-08-11T08:09:22.154Z,64.10
2022-08-11T08:12:08.405Z,63.50
2022-08-11T08:14:56.504Z,66.60
2022-08-11T08:17:42.491Z,61.50
2022-08-11T08:20:14.404Z,59.30
2022-08-11T08:22:48.528Z,57.50
2022-08-11T08:25:18.908Z,60.60
2022-08-11T08:27:48.249Z,62.00
2022-08-11T08:30:33.899Z,57.90
2022-08-11T08:33:02.937Z,57.90
2022-08-11T08:35:33.081Z,59.60
2022-08-11T08:38:01.936Z,57.40
2022-08-11T08:40:31.682Z,58.20
2022-08-11T08:43:04.490Z,54.60
2022-08-11T08:45:37.145Z,56.30
2022-08-11T08:48:12.146Z,55.70
2022-08-11T08:51:03.324Z,55.30
2022-08-11T08:53:36.516Z,55.20
2022-08-11T08:56:08.505Z,53.30
2022-08-11T08:58:39.819Z,53.90
2022-08-11T09:01:10.951Z,53.40
2022-08-11T09:04:04.807Z,53.20
2022-08-11T09:06:32.278Z,53.10
2022-08-11T09:09:00.767Z,54.40
2022-08-11T09:11:47.874Z,51.80
2022-08-11T09:14:16.680Z,50.90
2022-08-11T09:16:45.468Z,49.60
2022-08-11T09:19:17.457Z,49.40
2022-08-11T09:22:11.431Z,50.30
2022-08-11T09:24:58.972Z,49.30
2022-08-11T09:27:29.395Z,47.60
2022-08-11T09:29:58.049Z,47.60
2022-08-11T09:32:28.925Z,48.80
2022-08-11T09:34:57.906Z,48.40
2022-08-11T09:37:54.172Z,45.90
2022-08-11T09:40:33.563Z,46.60
2022-08-11T09:43:23.802Z,44.70
2022-08-11T09:45:54.271Z,46.20
2022-08-11T09:48:26.057Z,45.90
2022-08-11T09:50:56.556Z,44.90
2022-08-11T09:53:36.756Z,44.00
2022-08-11T09:56:30.818Z,45.80
2022-08-11T09:59:01.077Z,46.60
2022-08-11T10:01:32.830Z,45.50
2022-08-11T10:04:04.987Z,45.10
2022-08-11T10:06:54.264Z,47.10
2022-08-11T10:09:26.115Z,49.20
2022-08-11T10:11:59.219Z,48.10
2022-08-11T10:14:49.859Z,46.20
2022-08-11T10:17:21.944Z,44.30
2022-08-11T10:20:05.465Z,45.30
2022-08-11T10:22:53.430Z,44.70
2022-08-11T10:25:40.908Z,44.20
2022-08-11T10:28:17.444Z,42.50
2022-08-11T10:31:18.200Z,41.70
2022-08-11T10:34:03.378Z,44.20
2022-08-11T10:36:33.726Z,42.70
2022-08-11T10:39:04.176Z,42.70
2022-08-11T10:42:03.462Z,44.30
2022-08-11T10:44:39.845Z,43.00
2022-08-11T10:47:30.246Z,43.10
2022-08-11T10:50:16.718Z,40.30
2022-08-11T10:53:05.361Z,41.50
2022-08-11T10:55:51.965Z,41.20
2022-08-11T10:58:37.863Z,41.50
2022-08-11T11:01:06.442Z,40.60
2022-08-11T11:03:37.534Z,40.30
2022-08-11T11:06:29.266Z,41.20
2022-08-11T11:09:05.546Z,42.80
2022-08-11T11:11:56.235Z,44.10
2022-08-11T11:14:52.711Z,43.10
2022-08-11T11:17:48.583Z,43.40
2022-08-11T11:20:36.039Z,41.10
2022-08-11T11:23:09.261Z,39.70
2022-08-11T11:26:07.355Z,43.80
2022-08-11T11:29:20.360Z,41.70
2022-08-11T11:32:00.178Z,41.00
2022-08-11T11:34:58.310Z,39.80
2022-08-11T11:37:30.415Z,40.90
2022-08-11T11:39:59.436Z,41.00
2022-08-11T11:42:28.355Z,40.50
2022-08-11T11:44:59.433Z,40.00
2022-08-11T11:47:33.743Z,41.80
2022-08-11T11:50:02.039Z,41.00
2022-08-11T11:52:31.969Z,39.80
2022-08-11T11:55:01.151Z,39.90
2022-08-11T11:57:58.700Z,38.50
2022-08-11T12:00:47.315Z,37.50
2022-08-11T12:03:16.236Z,38.40
2022-08-11T12:05:45.855Z,38.80
2022-08-11T12:08:17.174Z,40.10
2022-08-11T12:10:48.086Z,41.50
2022-08-11T12:13:36.011Z,41.40
2022-08-11T12:16:33.612Z,42.50
2022-08-11T12:18:56.668Z,43.30
2022-08-11T12:21:26.200Z,41.80
2022-08-11T12:24:15.032Z,42.00
2022-08-11T12:27:15.898Z,42.30
2022-08-11T12:29:52.798Z,41.20
2022-08-11T12:32:25.379Z,40.10
2022-08-11T12:34:58.057Z,38.00
2022-08-11T12:37:31.762Z,37.40
2022-08-11T12:40:42.728Z,39.10
2022-08-11T12:43:38.005Z,39.60
2022-08-11T12:46:10.148Z,37.50
2022-08-11T12:49:03.097Z,37.00
2022-08-11T12:52:12.324Z,38.60
2022-08-11T12:54:51.892Z,38.40
2022-08-11T12:57:51.276Z,37.10
2022-08-11T13:00:38.569Z,36.30
2022-08-11T13:03:26.143Z,37.60
2022-08-11T13:05:56.841Z,38.20
2022-08-11T13:08:26.514Z,36.20
2022-08-11T13:11:14.269Z,37.10
2022-08-11T13:13:54.215Z,35.60
2022-08-11T13:16:27.665Z,36.40
2022-08-11T13:18:56.513Z,37.50
2022-08-11T13:21:25.593Z,37.90
2022-08-11T13:24:00.349Z,37.90
2022-08-11T13:26:47.000Z,39.00
2022-08-11T13:29:21.131Z,41.20
2022-08-11T13:31:51.005Z,41.20
2022-08-11T13:34:20.663Z,42.90
2022-08-11T13:36:52.889Z,42.50
2022-08-11T13:39:25.065Z,41.90
2022-08-11T13:41:56.455Z,42.40
2022-08-11T13:44:28.436Z,43.30
2022-08-11T13:47:01.370Z,42.40
2022-08-11T13:49:32.053Z,41.30
2022-08-11T13:52:00.880Z,39.40
2022-08-11T13:54:35.186Z,37.30
2022-08-11T13:57:09.047Z,37.30
2022-08-11T13:59:51.822Z,38.10
2022-08-11T14:02:30.203Z,37.10
2022-08-11T14:05:02.509Z,38.10
2022-08-11T14:07:36.497Z,36.80
2022-08-11T14:10:06.942Z,40.10
2022-08-11T14:12:55.431Z,39.50
2022-08-11T14:15:29.781Z,41.00
2022-08-11T14:18:03.323Z,41.60
2022-08-11T14:20:54.907Z,42.20
2022-08-11T14:23:27.617Z,43.80
2022-08-11T14:26:14.280Z,41.80
2022-08-11T14:28:45.050Z,41.00
2022-08-11T14:31:16.447Z,42.50
2022-08-11T14:34:00.685Z,45.10
2022-08-11T14:36:38.948Z,42.50
2022-08-11T14:39:11.672Z,44.20
2022-08-11T14:42:11.715Z,44.30
2022-08-11T14:45:00.681Z,44.10
2022-08-11T14:47:34.652Z,43.50
2022-08-11T14:50:11.813Z,43.80
2022-08-11T14:52:45.064Z,44.90
2022-08-11T14:55:32.382Z,44.90
2022-08-11T14:58:01.801Z,46.80
2022-08-11T15:00:30.976Z,47.40
2022-08-11T15:03:13.407Z,46.80
2022-08-11T15:05:55.729Z,47.90
2022-08-11T15:08:42.694Z,49.40
2022-08-11T15:11:27.908Z,48.30
2022-08-11T15:13:58.092Z,48.30
2022-08-11T15:16:41.277Z,48.70
2022-08-11T15:19:14.464Z,46.90
2022-08-11T15:22:00.728Z,48.40
2022-08-11T15:24:30.616Z,50.10
2022-08-11T15:27:19.280Z,49.80
2022-08-11T15:30:06.270Z,48.60
2022-08-11T15:32:53.498Z,50.30
2022-08-11T15:35:41.824Z,50.50
2022-08-11T15:38:13.705Z,51.20
2022-08-11T15:41:01.810Z,49.70
2022-08-11T15:43:57.198Z,49.10
2022-08-11T15:46:31.453Z,47.80
2022-08-11T15:49:02.625Z,47.00
2022-08-11T15:51:37.325Z,46.40
2022-08-11T15:54:09.602Z,46.40
2022-08-11T15:56:42.351Z,46.00
2022-08-11T15:59:41.959Z,46.20
2022-08-11T16:02:33.004Z,47.40
2022-08-11T16:05:07.002Z,48.30
2022-08-11T16:07:40.542Z,48.80
2022-08-11T16:10:18.998Z,50.80
2022-08-11T16:13:20.434Z,52.10
2022-08-11T16:16:09.362Z,52.30
2022-08-11T16:18:44.070Z,55.50
2022-08-11T16:21:26.115Z,58.10
2022-08-11T16:24:08.591Z,60.20
2022-08-11T16:27:08.818Z,61.90
2022-08-11T16:29:31.723Z,64.10
2022-08-11T16:32:20.285Z,63.60
2022-08-11T16:35:10.080Z,65.10
2022-08-11T16:37:56.917Z,69.00
2022-08-11T16:40:27.294Z,67.60
2022-08-11T16:43:14.758Z,69.20
2022-08-11T16:46:01.657Z,70.60
2022-08-11T16:48:35.376Z,70.40
2022-08-11T16:51:06.874Z,69.40
2022-08-11T16:54:00.104Z,72.00
2022-08-11T16:56:29.400Z,70.80
2022-08-11T16:59:16.695Z,71.40
2022-08-11T17:01:53.408Z,72.00
2022-08-11T17:04:50.096Z,74.30
2022-08-11T17:07:42.434Z,73.90
2022-08-11T17:10:50.877Z,75.20
2022-08-11T17:13:29.318Z,76.20
2022-08-11T17:16:08.014Z,76.20
2022-08-11T17:18:43.054Z,76.90
2022-08-11T17:21:16.078Z,79.30
2022-08-11T17:23:47.135Z,77.10
2022-08-11T17:26:26.287Z,78.10
2022-08-11T17:29:00.324Z,79.60
2022-08-11T17:31:47.707Z,81.00
2022-08-11T17:34:34.070Z,82.80
2022-08-11T17:37:04.138Z,84.70
2022-08-11T17:39:35.641Z,85.10
2022-08-11T17:42:21.872Z,87.90
2022-08-11T17:45:10.390Z,88.50
2022-08-11T17:47:57.147Z,90.10
2022-08-11T17:50:26.386Z,90.00
2022-08-11T17:53:12.810Z,91.90
2022-08-11T17:55:59.737Z,92.90
2022-08-11T17:58:55.139Z,93.30
2022-08-11T18:01:26.189Z,93.30
2022-08-11T18:03:58.267Z,94.20
2022-08-11T18:06:33.763Z,94.10
2022-08-11T18:09:22.941Z,94.30
2022-08-11T18:12:12.739Z,95.30
2022-08-11T18:15:02.172Z,95.60
2022-08-11T18:17:49.644Z,96.20
2022-08-11T18:20:36.634Z,97.00
2022-08-11T18:23:46.017Z,97.70
2022-08-11T18:26:35.846Z,97.70
2022-08-11T18:29:23.285Z,97.40
2022-08-11T18:32:21.940Z,98.00
2022-08-11T18:35:16.008Z,99.00
2022-08-11T18:38:05.660Z,99.50
2022-08-11T18:40:54.195Z,99.90
2022-08-11T18:43:42.630Z,99.90
2022-08-11T18:46:31.734Z,99.90
2022-08-11T18:49:21.949Z,99.90
2022-08-11T18:52:12.535Z,99.90
2022-08-11T18:55:02.017Z,99.90
2022-08-11T18:57:54.306Z,99.60
2022-08-11T19:00:42.251Z,98.30
2022-08-11T19:03:31.228Z,97.40
2022-08-11T19:06:39.079Z,97.20
2022-08-11T19:09:35.277Z,98.90
2022-08-11T19:12:32.858Z,99.60
2022-08-11T19:15:20.897Z,99.70
2022-08-11T19:18:08.430Z,99.90
2022-08-11T19:20:55.934Z,99.90
2022-08-11T19:26:32.255Z,99.90
2022-08-11T19:30:07.992Z,99.90
2022-08-11T19:32:45.692Z,99.90
2022-08-11T19:35:53.813Z,99.30
2022-08-11T19:39:03.478Z,99.30
2022-08-11T19:41:57.935Z,99.30
2022-08-11T19:44:53.880Z,99.60
2022-08-11T19:47:44.552Z,99.90
2022-08-11T19:50:37.902Z,99.90
2022-08-11T19:53:33.529Z,99.90
2022-08-11T19:56:37.518Z,99.90
2022-08-11T19:59:40.970Z,99.90
2022-08-11T20:02:33.023Z,99.90
2022-08-11T20:05:34.369Z,99.90
2022-08-11T20:12:27.059Z,99.90
2022-08-11T20:15:26.807Z,99.90
2022-08-11T20:18:21.327Z,99.90
2022-08-11T20:21:28.029Z,99.90
2022-08-11T20:25:03.464Z,99.90
2022-08-11T20:28:03.486Z,99.90
2022-08-11T20:31:13.883Z,99.90
2022-08-11T20:34:30.779Z,99.90
2022-08-11T20:37:47.671Z,99.90
2022-08-11T20:40:54.360Z,99.90
2022-08-11T20:44:05.531Z,99.90
2022-08-11T20:47:12.991Z,99.90
2022-08-11T20:50:07.107Z,99.90
2022-08-11T20:52:58.964Z,99.90
2022-08-11T20:55:53.232Z,99.90
2022-08-11T20:59:17.854Z,99.90
2022-08-11T21:02:09.818Z,99.90
2022-08-11T21:05:02.841Z,99.90
2022-08-11T21:08:06.560Z,99.90
2022-08-11T21:10:58.333Z,99.90
2022-08-11T21:14:11.300Z,99.90
2022-08-11T21:17:26.980Z,99.90
2022-08-11T21:20:24.212Z,99.90
2022-08-11T21:23:24.175Z,99.90
2022-08-11T21:26:21.816Z,99.90
2022-08-11T21:29:15.800Z,99.90
2022-08-11T21:32:23.169Z,99.90
2022-08-11T21:35:13.825Z,99.90
2022-08-11T21:38:03.097Z,99.90
2022-08-11T21:40:56.105Z,99.90
2022-08-11T21:43:52.422Z,99.90
2022-08-11T21:46:43.062Z,99.90
2022-08-11T21:49:35.211Z,99.90
2022-08-11T21:52:31.410Z,99.90
2022-08-11T21:55:22.033Z,99.90
2022-08-11T21:58:17.123Z,99.90
2022-08-11T22:01:06.942Z,99.90
2022-08-11T22:04:13.126Z,99.90
2022-08-11T22:07:07.818Z,99.90
2022-08-11T22:09:59.440Z,99.90
2022-08-11T22:12:52.711Z,99.90
2022-08-11T22:15:52.813Z,99.90
2022-08-11T22:18:52.960Z,99.90
2022-08-11T22:22:03.625Z,99.90
2022-08-11T22:24:58.331Z,99.90
2022-08-11T22:27:49.113Z,99.90
2022-08-11T22:30:41.475Z,99.90
2022-08-11T22:33:35.779Z,99.90
2022-08-11T22:36:32.226Z,99.90
2022-08-11T22:39:26.996Z,99.90
2022-08-11T22:42:33.457Z,99.90
2022-08-11T22:45:23.289Z,99.90
2022-08-11T22:48:16.018Z,99.90
2022-08-11T22:51:04.300Z,99.90
2022-08-11T22:53:58.092Z,99.90
2022-08-11T22:56:51.934Z,99.90
2022-08-11T22:59:46.258Z,99.90
2022-08-11T23:02:41.374Z,99.90
2022-08-11T23:05:46.465Z,99.90
2022-08-11T23:08:39.435Z,99.90
2022-08-11T23:12:06.403Z,99.90
2022-08-11T23:14:45.325Z,99.90
2022-08-11T23:17:33.265Z,99.90
2022-08-11T23:20:35.862Z,99.90
2022-08-11T23:23:36.666Z,99.90
2022-08-11T23:26:24.907Z,99.90
2022-08-11T23:29:12.780Z,99.90
2022-08-11T23:32:02.709Z,99.90
2022-08-11T23:35:03.689Z,99.90
2022-08-11T23:38:11.157Z,99.90
2022-08-11T23:40:59.104Z,99.90
2022-08-11T23:43:47.056Z,99.90
2022-08-11T23:46:35.326Z,99.90
2022-08-11T23:49:26.778Z,99.90
2022-08-11T23:52:16.644Z,99.90
2022-08-11T23:55:05.211Z,99.90
2022-08-11T23:57:52.982Z,99.90
